Time;durP1;ratioP1;P1;durP2;ratioP2;P2;SDS_P1;SDS_P2;PMS_P1;PMS_P2;Temp;Humidity;BMP_temperature;BMP_pressure;BME280_temperature;BME280_humidity;BME280_pressure;Samples;Min_cycle;Max_cycle;Signal;HPM_P1;HPM_P2
2021/05/02 00:00:00;;;;;;;46.83;33.27;;;;;;;4.30;87.94;95120.09;4994821;28;20539;-75
2021/05/02 00:02:26;;;;;;;53.90;36.30;;;;;;;4.26;87.98;95122.09;5012203;28;20187;-75
2021/05/02 00:04:51;;;;;;;50.03;34.50;;;;;;;4.24;87.95;95131.69;5011591;28;20238;-75
2021/05/02 00:07:16;;;;;;;49.43;34.83;;;;;;;4.24;87.20;95128.25;4994800;28;20203;-75
2021/05/02 00:09:42;;;;;;;45.07;32.50;;;;;;;4.31;87.22;95120.91;5012104;28;20210;-75
2021/05/02 00:12:07;;;;;;;41.20;32.07;;;;;;;4.21;85.51;95126.75;5010821;28;20190;-75
2021/05/02 00:14:33;;;;;;;40.57;30.83;;;;;;;4.18;86.36;95132.16;5010575;28;20318;-75
2021/05/02 00:16:58;;;;;;;41.83;31.07;;;;;;;4.17;86.19;95130.50;5010602;28;20206;-75
2021/05/02 00:19:23;;;;;;;42.70;30.20;;;;;;;4.15;85.33;95134.97;5012107;28;20182;-74
2021/05/02 00:21:50;;;;;;;44.27;30.70;;;;;;;4.14;85.50;95135.88;5011954;28;20313;-76
2021/05/02 00:24:18;;;;;;;42.43;32.30;;;;;;;4.11;85.60;95127.59;4994004;28;20248;-74
2021/05/02 00:26:44;;;;;;;41.47;29.27;;;;;;;4.09;86.07;95132.84;4994411;28;20837;-76
2021/05/02 00:29:10;;;;;;;39.83;29.90;;;;;;;4.09;85.11;95137.19;4994157;28;20208;-76
2021/05/02 00:31:40;;;;;;;36.53;26.83;;;;;;;4.15;84.04;95140.09;4994278;28;20253;-76
2021/05/02 00:34:05;;;;;;;39.30;27.33;;;;;;;4.10;84.26;95138.81;4994094;28;20210;-76
2021/05/02 00:36:31;;;;;;;36.63;27.17;;;;;;;4.04;84.35;95150.38;5011012;28;20245;-73
2021/05/02 00:38:57;;;;;;;32.57;26.80;;;;;;;4.04;84.48;95149.56;5011807;28;20487;-75
2021/05/02 00:41:28;;;;;;;29.33;24.60;;;;;;;3.95;83.31;95148.50;4994099;28;20188;-74
2021/05/02 00:43:58;;;;;;;30.93;24.23;;;;;;;3.99;83.52;95157.63;5011766;28;20214;-75
2021/05/02 00:46:34;;;;;;;32.10;25.73;;;;;;;3.94;83.58;95154.59;5010990;28;20846;-75
2021/05/02 00:49:15;;;;;;;35.20;26.03;;;;;;;3.96;83.01;95155.28;5010085;28;20233;-76
2021/05/02 00:51:43;;;;;;;31.40;24.43;;;;;;;4.01;81.67;95158.31;5011505;28;20167;-75
2021/05/02 00:54:13;;;;;;;26.60;22.30;;;;;;;4.00;82.55;95156.69;5013182;28;20579;-76
2021/05/02 00:56:56;;;;;;;27.90;24.10;;;;;;;3.98;82.50;95161.13;5031059;28;20195;-75
2021/05/02 00:59:43;;;;;;;30.83;25.13;;;;;;;3.91;83.76;95158.22;5013502;28;20181;-75
2021/05/02 01:02:11;;;;;;;31.97;23.80;;;;;;;3.91;82.88;95165.91;5031259;28;20568;-73
2021/05/02 01:04:39;;;;;;;31.70;25.53;;;;;;;3.88;83.85;95165.31;5011700;28;20257;-75
2021/05/02 01:07:09;;;;;;;31.63;23.83;;;;;;;3.91;83.54;95165.09;4996857;28;20202;-73
2021/05/02 01:09:34;;;;;;;33.57;24.90;;;;;;;3.82;83.15;95166.59;5012501;28;20688;-73
2021/05/02 01:12:01;;;;;;;31.07;25.07;;;;;;;3.83;82.90;95170.00;5031172;28;20171;-73
2021/05/02 01:14:30;;;;;;;28.53;23.97;;;;;;;3.84;83.07;95171.63;5028938;28;20198;-74
2021/05/02 01:16:56;;;;;;;27.60;22.43;;;;;;;3.80;82.28;95173.63;5013837;28;20256;-73
2021/05/02 01:19:22;;;;;;;32.13;24.67;;;;;;;3.80;82.69;95171.06;5031078;28;20175;-73
2021/05/02 01:21:49;;;;;;;31.00;23.60;;;;;;;3.80;82.60;95177.91;5031071;28;20174;-75
2021/05/02 01:24:14;;;;;;;26.33;22.17;;;;;;;3.80;82.07;95175.34;5030708;28;20170;-75
2021/05/02 01:26:45;;;;;;;30.00;22.57;;;;;;;3.81;82.09;95175.25;5014717;28;20202;-74
2021/05/02 01:29:11;;;;;;;25.33;21.83;;;;;;;3.70;82.51;95182.91;5017248;28;20194;-75
2021/05/02 01:31:38;;;;;;;25.60;21.00;;;;;;;3.77;82.16;95180.72;5017230;28;20174;-75
2021/05/02 01:34:04;;;;;;;28.20;22.20;;;;;;;3.73;81.73;95181.91;5033563;28;20203;-74
2021/05/02 01:36:29;;;;;;;26.20;21.50;;;;;;;3.75;81.99;95182.59;5034260;28;20213;-74
2021/05/02 01:38:56;;;;;;;25.10;21.03;;;;;;;3.71;81.47;95187.16;5034769;28;20189;-74
2021/05/02 01:41:22;;;;;;;24.90;21.40;;;;;;;3.72;81.72;95185.41;5033445;28;20177;-73
2021/05/02 01:43:48;;;;;;;27.07;22.03;;;;;;;3.64;82.21;95186.78;5034686;28;20173;-75
2021/05/02 01:46:26;;;;;;;27.37;23.07;;;;;;;3.58;82.21;95189.81;5033836;28;20198;-76
2021/05/02 01:48:51;;;;;;;25.73;22.50;;;;;;;3.61;82.87;95197.25;5034628;28;20204;-75
2021/05/02 01:51:18;;;;;;;24.87;21.30;;;;;;;3.70;82.26;95198.34;5016730;28;20561;-75
2021/05/02 01:53:44;;;;;;;25.27;21.43;;;;;;;3.60;81.66;95197.38;5034451;28;20190;-76
2021/05/02 01:56:13;;;;;;;26.63;21.73;;;;;;;3.64;82.15;95196.25;5016048;28;20195;-75
2021/05/02 01:58:39;;;;;;;25.10;22.37;;;;;;;3.61;82.33;95201.59;5033144;28;20174;-75
2021/05/02 02:01:07;;;;;;;26.57;21.00;;;;;;;3.63;82.44;95205.69;5034212;28;20183;-76
2021/05/02 02:03:33;;;;;;;27.90;22.33;;;;;;;3.63;82.12;95199.75;5016725;28;20224;-75
2021/05/02 02:05:59;;;;;;;28.40;23.40;;;;;;;3.58;82.33;95218.03;5032403;28;20194;-75
2021/05/02 02:08:24;;;;;;;26.13;22.40;;;;;;;3.55;82.37;95213.16;5033210;28;20181;-76
2021/05/02 02:10:51;;;;;;;26.83;23.33;;;;;;;3.56;82.68;95216.53;5032900;28;20778;-76
2021/05/02 02:13:17;;;;;;;26.97;23.10;;;;;;;3.54;82.89;95216.66;5034016;28;20198;-76
2021/05/02 02:15:43;;;;;;;27.00;23.00;;;;;;;3.57;83.26;95218.97;5015668;28;20245;-75
2021/05/02 02:18:12;;;;;;;28.03;23.47;;;;;;;3.54;82.81;95210.69;5034144;28;20175;-75
2021/05/02 02:20:42;;;;;;;28.57;23.17;;;;;;;3.47;82.63;95222.34;5016286;28;20233;-76
2021/05/02 02:23:14;;;;;;;27.33;23.90;;;;;;;3.49;82.93;95228.19;5016367;28;20193;-75
2021/05/02 02:25:41;;;;;;;29.43;24.60;;;;;;;3.50;82.89;95233.19;5015523;28;20238;-76
2021/05/02 02:28:10;;;;;;;28.67;23.47;;;;;;;3.53;83.47;95232.97;5033818;28;20189;-75
2021/05/02 02:30:37;;;;;;;27.70;23.17;;;;;;;3.55;83.53;95223.41;5033793;28;20189;-75
2021/05/02 02:33:03;;;;;;;25.57;22.33;;;;;;;3.53;82.60;95230.38;5015960;28;20254;-76
2021/05/02 02:35:29;;;;;;;31.23;23.90;;;;;;;3.50;82.75;95233.19;5032966;28;20178;-76
2021/05/02 02:37:55;;;;;;;30.83;24.57;;;;;;;3.47;82.14;95228.28;5015188;28;20166;-75
2021/05/02 02:40:23;;;;;;;29.07;24.10;;;;;;;3.42;81.96;95228.59;5015879;28;20554;-76
2021/05/02 02:42:49;;;;;;;30.90;25.00;;;;;;;3.48;82.20;95236.81;5032402;28;20175;-74
2021/05/02 02:45:15;;;;;;;31.63;24.90;;;;;;;3.43;81.80;95234.56;5015127;28;20274;-74
2021/05/02 02:47:48;;;;;;;32.43;27.30;;;;;;;3.45;82.49;95232.72;5033257;28;20206;-74
2021/05/02 02:50:17;;;;;;;33.60;27.33;;;;;;;3.46;82.53;95236.09;5015654;28;20633;-74
2021/05/02 02:52:48;;;;;;;32.60;26.77;;;;;;;3.52;83.21;95235.63;5033327;28;20213;-74
2021/05/02 02:55:15;;;;;;;36.67;26.67;;;;;;;3.51;83.21;95245.09;5032632;28;20210;-73
2021/05/02 02:57:49;;;;;;;31.17;26.50;;;;;;;3.53;83.11;95248.34;5031978;28;20193;-74
2021/05/02 03:00:15;;;;;;;33.63;27.63;;;;;;;3.53;83.42;95250.94;5031802;28;20269;-74
2021/05/02 03:02:45;;;;;;;35.17;28.23;;;;;;;3.54;83.20;95249.22;5015691;28;20197;-75
2021/05/02 03:05:13;;;;;;;33.93;28.00;;;;;;;3.52;83.28;95251.03;5032585;28;20222;-75
2021/05/02 03:07:39;;;;;;;30.80;27.43;;;;;;;3.48;83.57;95245.31;5015283;28;20221;-75
2021/05/02 03:10:07;;;;;;;35.00;28.03;;;;;;;3.53;83.56;95247.53;5031998;28;20273;-75
2021/05/02 03:12:33;;;;;;;36.50;29.97;;;;;;;3.50;83.57;95240.88;5033093;28;20214;-75
2021/05/02 03:14:58;;;;;;;34.53;27.40;;;;;;;3.52;83.63;95246.72;5014703;28;20241;-75
2021/05/02 03:17:29;;;;;;;35.53;29.00;;;;;;;3.55;84.01;95250.84;5015359;28;20198;-75
2021/05/02 03:20:04;;;;;;;35.20;27.80;;;;;;;3.56;83.63;95261.00;5015474;28;20791;-75
2021/05/02 03:22:36;;;;;;;36.43;28.17;;;;;;;3.51;83.22;95264.81;5031612;28;20178;-75
2021/05/02 03:25:04;;;;;;;36.70;29.27;;;;;;;3.56;83.59;95273.84;5014758;28;20260;-75
2021/05/02 03:27:58;;;;;;;34.07;28.33;;;;;;;3.46;83.42;95272.88;5031221;28;20206;-75
2021/05/02 03:30:24;;;;;;;32.97;26.80;;;;;;;3.44;84.32;95268.75;5032944;28;20592;-75
2021/05/02 03:32:52;;;;;;;34.80;28.23;;;;;;;3.46;84.17;95274.63;5031344;28;20214;-75
2021/05/02 03:35:19;;;;;;;33.03;28.87;;;;;;;3.44;84.17;95277.28;5014403;28;20266;-75
2021/05/02 03:37:52;;;;;;;33.90;27.00;;;;;;;3.43;84.58;95278.19;5014925;28;20225;-75
2021/05/02 03:40:17;;;;;;;33.03;28.00;;;;;;;3.45;84.31;95275.53;5031732;28;20170;-75
2021/05/02 03:42:43;;;;;;;33.60;27.30;;;;;;;3.44;84.77;95279.84;5014956;28;20181;-75
2021/05/02 03:45:09;;;;;;;35.53;28.73;;;;;;;3.41;84.41;95277.50;5030763;28;20232;-75
2021/05/02 03:47:34;;;;;;;32.83;27.13;;;;;;;3.43;84.28;95278.19;5014485;28;20209;-75
2021/05/02 03:49:59;;;;;;;34.53;28.23;;;;;;;3.39;84.58;95276.78;5032015;28;20256;-75
2021/05/02 03:52:25;;;;;;;34.87;27.40;;;;;;;3.38;84.27;95275.97;5014646;28;20193;-75
2021/05/02 03:54:53;;;;;;;34.83;28.87;;;;;;;3.36;84.14;95275.28;5031550;28;20206;-75
2021/05/02 03:57:19;;;;;;;34.47;26.90;;;;;;;3.34;83.86;95276.28;5014421;28;20209;-75
2021/05/02 03:59:45;;;;;;;37.37;29.40;;;;;;;3.33;83.78;95277.22;5014577;28;20182;-75
2021/05/02 04:02:12;;;;;;;33.47;27.87;;;;;;;3.36;83.85;95277.03;5031928;28;20269;-75
2021/05/02 04:04:37;;;;;;;31.40;27.10;;;;;;;3.31;83.64;95279.91;5013808;28;20174;-75
2021/05/02 04:07:05;;;;;;;33.80;27.57;;;;;;;3.33;83.14;95282.38;5030409;28;20205;-75
2021/05/02 04:09:32;;;;;;;33.33;27.40;;;;;;;3.37;82.77;95286.38;5013387;28;20176;-75
2021/05/02 04:11:58;;;;;;;30.13;25.90;;;;;;;3.33;82.05;95290.06;5014330;28;20302;-75
2021/05/02 04:14:23;;;;;;;33.73;27.03;;;;;;;3.44;82.13;95294.41;5031071;28;20814;-75
2021/05/02 04:17:02;;;;;;;29.60;26.47;;;;;;;3.36;82.05;95302.69;5031815;28;20203;-75
2021/05/02 04:19:29;;;;;;;36.83;26.47;;;;;;;3.36;82.22;95302.69;5014292;28;20176;-75
2021/05/02 04:21:54;;;;;;;30.60;24.73;;;;;;;3.31;81.69;95310.72;5013970;28;20185;-75
2021/05/02 04:24:21;;;;;;;33.57;24.67;;;;;;;3.31;82.50;95310.72;5031141;28;20178;-75
2021/05/02 04:26:48;;;;;;;30.80;26.40;;;;;;;3.34;82.51;95312.22;5013752;28;20194;-75
2021/05/02 04:29:14;;;;;;;33.63;26.00;;;;;;;3.23;82.33;95317.31;5013912;28;20186;-75
2021/05/02 04:31:39;;;;;;;32.00;25.60;;;;;;;3.27;82.61;95321.28;5030410;28;20266;-75
2021/05/02 04:34:05;;;;;;;27.07;23.00;;;;;;;3.26;81.74;95324.78;5031524;28;20208;-75
2021/05/02 04:36:31;;;;;;;29.33;23.57;;;;;;;3.33;81.68;95331.94;5013018;28;20564;-75
2021/05/02 04:38:57;;;;;;;26.83;23.23;;;;;;;3.39;80.82;95333.28;5030416;28;20185;-75
2021/05/02 04:41:22;;;;;;;24.33;21.37;;;;;;;3.41;80.07;95332.22;5031355;28;20174;-75
2021/05/02 04:43:48;;;;;;;25.23;20.97;;;;;;;3.38;80.45;95335.03;5013802;28;20248;-75
2021/05/02 04:46:13;;;;;;;24.00;21.03;;;;;;;3.43;80.30;95342.38;5030729;28;20198;-74
2021/05/02 04:48:40;;;;;;;28.53;22.03;;;;;;;3.46;80.93;95339.63;5013744;28;20183;-75
2021/05/02 04:51:05;;;;;;;26.27;21.93;;;;;;;3.53;80.12;95345.91;5013986;28;20174;-75
2021/05/02 04:53:31;;;;;;;27.60;21.83;;;;;;;3.48;79.39;95352.34;5031229;28;20272;-75
2021/05/02 04:55:56;;;;;;;24.93;21.37;;;;;;;3.52;79.77;95353.75;5030527;28;20240;-75
2021/05/02 04:58:22;;;;;;;24.03;20.83;;;;;;;3.58;80.24;95358.44;5031237;28;20188;-75
2021/05/02 05:00:47;;;;;;;26.97;20.77;;;;;;;3.76;79.13;95367.41;5033304;28;20186;-76
2021/05/02 05:03:12;;;;;;;24.33;21.70;;;;;;;3.79;79.30;95368.91;5037894;28;20181;-76
2021/05/02 05:05:38;;;;;;;24.53;21.10;;;;;;;3.90;78.89;95368.97;5019455;28;20213;-76
2021/05/02 05:08:03;;;;;;;23.70;20.53;;;;;;;3.84;79.04;95367.66;5019235;28;20645;-75
2021/05/02 05:10:29;;;;;;;23.37;20.03;;;;;;;3.80;79.41;95370.56;5037997;28;20583;-75
2021/05/02 05:12:54;;;;;;;23.80;21.20;;;;;;;3.86;78.91;95370.13;5019974;28;20552;-75
2021/05/02 05:15:19;;;;;;;23.47;20.93;;;;;;;3.89;78.63;95375.88;5037106;28;20577;-76
2021/05/02 05:17:45;;;;;;;23.17;20.10;;;;;;;4.02;78.58;95377.53;5037713;28;20638;-76
2021/05/02 05:20:10;;;;;;;21.30;19.03;;;;;;;4.06;78.09;95379.75;5037803;28;20197;-75
2021/05/02 05:22:36;;;;;;;22.70;20.20;;;;;;;4.11;77.73;95382.00;5019742;28;20582;-76
2021/05/02 05:25:01;;;;;;;22.20;19.80;;;;;;;4.13;77.72;95375.81;5019322;28;20645;-75
2021/05/02 05:27:26;;;;;;;22.63;18.97;;;;;;;4.18;77.19;95385.78;5037627;28;20218;-74
2021/05/02 05:29:52;;;;;;;22.27;19.87;;;;;;;4.21;77.28;95391.50;5037681;28;20653;-75
2021/05/02 05:32:17;;;;;;;22.27;18.47;;;;;;;4.21;75.82;95388.91;5037554;28;20592;-75
2021/05/02 05:34:42;;;;;;;21.87;19.13;;;;;;;4.41;75.99;95394.34;5019050;28;20357;-74
2021/05/02 05:37:07;;;;;;;21.37;18.47;;;;;;;4.60;75.57;95404.09;5019776;28;20202;-75
2021/05/02 05:39:33;;;;;;;20.40;18.23;;;;;;;4.65;73.91;95405.38;5019736;28;20224;-75
2021/05/02 05:41:59;;;;;;;20.27;17.20;;;;;;;4.79;73.52;95399.19;5037501;28;20228;-75
2021/05/02 05:44:24;;;;;;;24.73;16.97;;;;;;;5.12;73.62;95393.22;5037035;28;20264;-75
2021/05/02 05:46:49;;;;;;;19.47;17.30;;;;;;;5.24;73.02;95399.19;5037255;28;20353;-75
2021/05/02 05:49:18;;;;;;;19.90;16.43;;;;;;;5.43;72.29;95401.97;5037426;28;20183;-75
2021/05/02 05:51:43;;;;;;;19.53;16.33;;;;;;;5.54;72.32;95404.53;5037346;28;20177;-75
2021/05/02 05:54:08;;;;;;;19.47;16.23;;;;;;;5.72;71.74;95401.44;5037224;28;20213;-75
2021/05/02 05:56:34;;;;;;;18.73;16.00;;;;;;;6.01;70.70;95414.59;5036845;28;20209;-76
2021/05/02 05:58:59;;;;;;;19.23;15.83;;;;;;;5.88;69.39;95410.41;5037315;28;20641;-75
2021/05/02 06:01:24;;;;;;;16.13;14.50;;;;;;;6.35;68.68;95415.28;5037562;28;20186;-75
2021/05/02 06:03:51;;;;;;;17.90;15.40;;;;;;;6.78;67.35;95421.13;5037329;28;20178;-75
2021/05/02 06:06:16;;;;;;;17.40;15.13;;;;;;;7.12;65.85;95417.50;5036588;28;20201;-75
2021/05/02 06:08:42;;;;;;;15.00;13.43;;;;;;;7.57;63.77;95426.47;5036432;28;20584;-75
2021/05/02 06:11:07;;;;;;;17.00;13.50;;;;;;;8.38;61.22;95434.09;5037282;28;20228;-75
2021/05/02 06:13:32;;;;;;;15.03;13.43;;;;;;;8.92;58.94;95425.72;5034541;28;20210;-75
2021/05/02 06:15:58;;;;;;;13.93;12.43;;;;;;;9.40;58.18;95432.50;5033548;28;20716;-75
2021/05/02 06:18:23;;;;;;;13.43;12.13;;;;;;;9.46;57.82;95434.53;5034049;28;20202;-75
2021/05/02 06:20:48;;;;;;;14.73;12.43;;;;;;;9.79;56.94;95448.69;5034033;28;20676;-75
2021/05/02 06:23:13;;;;;;;13.23;11.53;;;;;;;10.02;56.37;95432.72;5032758;28;20212;-76
2021/05/02 06:25:39;;;;;;;12.93;11.63;;;;;;;10.57;54.75;95448.19;5015674;28;20249;-75
2021/05/02 06:28:04;;;;;;;14.60;11.37;;;;;;;10.31;53.43;95440.31;5033756;28;20269;-75
2021/05/02 06:30:30;;;;;;;12.27;11.10;;;;;;;10.56;53.84;95441.34;5016089;28;20523;-76
2021/05/02 06:32:55;;;;;;;12.73;11.53;;;;;;;10.91;54.01;95438.69;5016082;28;20735;-76
2021/05/02 06:35:21;;;;;;;12.20;11.17;;;;;;;11.57;50.95;95432.06;5031719;28;20189;-75
2021/05/02 06:37:46;;;;;;;11.93;10.83;;;;;;;11.72;50.61;95440.91;5032288;28;20257;-76
2021/05/02 06:40:12;;;;;;;12.57;11.30;;;;;;;11.57;50.66;95440.72;5034490;28;20653;-76
2021/05/02 06:42:37;;;;;;;11.87;10.77;;;;;;;10.69;53.26;95446.97;5014317;28;20183;-76
2021/05/02 06:45:04;;;;;;;14.40;10.73;;;;;;;10.57;52.73;95450.78;4995549;28;20179;-76
2021/05/02 06:47:29;;;;;;;15.70;14.30;;;;;;;10.25;54.71;95446.94;5012628;28;20222;-76
2021/05/02 06:49:55;;;;;;;12.73;11.27;;;;;;;10.06;54.60;95453.03;4996722;28;20213;-76
2021/05/02 06:52:20;;;;;;;13.77;12.10;;;;;;;8.73;57.46;95457.63;5017052;28;20194;-76
2021/05/02 06:54:46;;;;;;;12.57;11.37;;;;;;;8.72;58.55;95463.78;4979189;28;20249;-76
2021/05/02 06:57:11;;;;;;;14.40;12.93;;;;;;;8.58;59.56;95466.78;4995935;28;20195;-75
2021/05/02 06:59:37;;;;;;;15.37;12.57;;;;;;;8.49;60.70;95470.22;5013473;28;20203;-76
2021/05/02 07:02:03;;;;;;;13.47;12.17;;;;;;;8.36;60.45;95475.63;5013528;28;20180;-75
2021/05/02 07:04:33;;;;;;;13.67;12.33;;;;;;;8.44;60.25;95469.78;4991943;28;20237;-76
2021/05/02 07:06:58;;;;;;;13.00;11.60;;;;;;;8.05;59.99;95469.72;5000637;28;21049;-76
2021/05/02 07:09:23;;;;;;;13.97;12.60;;;;;;;8.14;61.21;95479.28;4984526;28;20206;-76
2021/05/02 07:11:50;;;;;;;14.30;12.67;;;;;;;8.48;60.36;95484.06;5012224;28;20266;-76
2021/05/02 07:14:15;;;;;;;13.50;12.20;;;;;;;8.85;59.20;95488.56;5011963;28;20237;-76
2021/05/02 07:16:41;;;;;;;13.30;11.87;;;;;;;8.69;60.50;95483.94;4994874;28;20231;-76
2021/05/02 07:19:06;;;;;;;14.10;12.60;;;;;;;8.51;61.03;95482.03;4994857;28;20210;-76
2021/05/02 07:21:31;;;;;;;16.00;12.30;;;;;;;8.30;60.12;95483.06;5012656;28;20254;-75
2021/05/02 07:23:57;;;;;;;12.63;11.33;;;;;;;8.49;61.51;95489.13;5011908;28;20178;-76
2021/05/02 07:26:23;;;;;;;13.00;11.70;;;;;;;9.32;58.76;95492.81;4994139;28;20195;-75
2021/05/02 07:28:49;;;;;;;13.50;12.20;;;;;;;10.02;56.86;95489.78;5012225;28;20191;-75
2021/05/02 07:31:15;;;;;;;14.70;12.00;;;;;;;9.77;56.56;95486.91;5012240;28;20179;-76
2021/05/02 07:33:41;;;;;;;16.03;11.70;;;;;;;9.97;56.38;95492.00;5012211;28;20246;-74
2021/05/02 07:36:07;;;;;;;16.57;11.77;;;;;;;10.00;55.84;95494.31;4994126;28;20226;-75
2021/05/02 07:38:32;;;;;;;14.97;13.33;;;;;;;9.43;56.21;95502.19;5012136;28;20184;-76
2021/05/02 07:40:58;;;;;;;13.97;12.50;;;;;;;9.05;58.23;95506.53;4994580;28;20663;-75
2021/05/02 07:43:24;;;;;;;15.30;13.70;;;;;;;9.28;59.21;95512.22;4994507;28;20202;-76
2021/05/02 07:45:49;;;;;;;14.63;13.23;;;;;;;8.73;57.29;95506.00;5011449;28;20716;-76
2021/05/02 07:48:15;;;;;;;14.63;13.10;;;;;;;8.82;58.35;95501.78;4994668;28;20692;-76
2021/05/02 07:50:40;;;;;;;18.77;15.23;;;;;;;8.79;58.50;95511.47;5010559;28;20198;-77
2021/05/02 07:53:05;;;;;;;14.17;12.23;;;;;;;8.66;58.54;95515.28;5013724;28;20203;-80
2021/05/02 07:55:31;;;;;;;18.93;14.10;;;;;;;8.39;60.49;95515.94;5028798;28;20175;-79
2021/05/02 07:57:57;;;;;;;16.33;14.63;;;;;;;8.42;60.92;95513.09;5013010;28;20252;-80
2021/05/02 08:00:22;;;;;;;15.97;14.27;;;;;;;8.56;60.75;95517.03;4996736;28;20630;-78
2021/05/02 08:02:48;;;;;;;17.27;14.57;;;;;;;8.01;61.26;95520.06;4994943;28;20270;-76
2021/05/02 08:05:13;;;;;;;16.03;14.33;;;;;;;7.97;61.39;95516.13;5011184;28;20222;-75
2021/05/02 08:07:39;;;;;;;15.90;14.30;;;;;;;7.81;61.99;95520.97;5011838;28;20207;-75
2021/05/02 08:10:05;;;;;;;15.57;13.97;;;;;;;8.01;61.94;95520.06;5003256;28;20284;-75
2021/05/02 08:12:31;;;;;;;15.00;13.37;;;;;;;7.82;62.52;95530.38;4977833;28;20186;-74
2021/05/02 08:14:56;;;;;;;17.33;14.20;;;;;;;7.98;61.15;95530.69;4991993;28;20223;-75
2021/05/02 08:17:21;;;;;;;15.77;13.70;;;;;;;8.25;61.62;95527.47;5011093;28;20245;-75
2021/05/02 08:19:47;;;;;;;15.33;13.70;;;;;;;8.37;59.96;95531.59;5009269;28;20251;-75
2021/05/02 08:22:13;;;;;;;18.80;14.90;;;;;;;8.65;59.47;95532.56;5006813;28;20218;-74
2021/05/02 08:24:39;;;;;;;16.87;15.07;;;;;;;8.55;59.08;95531.75;4989236;28;20552;-74
2021/05/02 08:27:04;;;;;;;18.07;15.93;;;;;;;8.68;59.42;95540.09;5008624;28;20211;-74
2021/05/02 08:29:29;;;;;;;16.23;13.90;;;;;;;9.33;58.72;95537.69;4991152;28;20727;-75
2021/05/02 08:31:55;;;;;;;18.50;16.63;;;;;;;9.22;57.31;95545.63;4989977;28;20221;-75
2021/05/02 08:34:20;;;;;;;19.27;15.27;;;;;;;9.76;56.29;95552.72;5010038;28;20856;-74
2021/05/02 08:36:46;;;;;;;17.43;14.73;;;;;;;9.94;55.54;95543.22;5009951;28;20268;-74
2021/05/02 08:39:11;;;;;;;20.70;15.80;;;;;;;9.76;55.40;95552.72;4994320;28;20662;-80
2021/05/02 08:41:36;;;;;;;17.63;14.70;;;;;;;9.84;55.69;95552.81;4978175;28;20604;-73
2021/05/02 08:44:03;;;;;;;19.07;17.07;;;;;;;9.84;55.46;95559.78;5011630;28;20187;-75
2021/05/02 08:46:29;;;;;;;22.50;17.50;;;;;;;10.05;55.39;95559.53;4993990;28;20210;-75
2021/05/02 08:48:54;;;;;;;19.70;17.23;;;;;;;10.10;54.30;95560.75;4994223;28;20179;-74
2021/05/02 08:51:20;;;;;;;18.10;16.20;;;;;;;10.01;54.89;95563.41;5002928;28;20211;-73
2021/05/02 08:53:45;;;;;;;17.40;14.93;;;;;;;9.37;54.37;95554.63;5000476;28;20560;-74
2021/05/02 08:56:10;;;;;;;22.10;16.40;;;;;;;9.59;53.16;95556.03;5009282;28;20238;-73
2021/05/02 08:58:36;;;;;;;17.00;14.90;;;;;;;9.53;54.30;95562.59;5010609;28;20180;-73
2021/05/02 09:01:03;;;;;;;15.63;14.00;;;;;;;9.85;53.61;95558.81;5011177;28;20237;-75
2021/05/02 09:03:44;;;;;;;18.73;16.40;;;;;;;9.90;53.39;95564.41;4993118;28;20179;-75
2021/05/02 09:06:14;;;;;;;18.20;15.40;;;;;;;9.51;53.83;95559.34;5009806;28;20205;-74
2021/05/02 09:08:39;;;;;;;18.63;15.83;;;;;;;9.85;54.14;95559.63;5010575;28;20266;-75
2021/05/02 09:11:05;;;;;;;16.27;14.53;;;;;;;10.04;53.93;95548.34;5010718;28;20270;-75
2021/05/02 09:13:31;;;;;;;19.20;15.67;;;;;;;10.13;53.44;95557.88;5010611;28;20234;-75
2021/05/02 09:15:58;;;;;;;17.53;15.73;;;;;;;10.15;51.66;95557.72;5009744;28;20210;-73
2021/05/02 09:18:37;;;;;;;19.40;16.70;;;;;;;10.52;53.06;95557.69;5010663;28;20181;-75
2021/05/02 09:21:05;;;;;;;20.60;16.53;;;;;;;9.76;51.33;95557.09;4993088;28;20671;-75
2021/05/02 09:23:40;;;;;;;17.87;15.97;;;;;;;9.67;53.45;95555.34;5010369;28;20265;-75
2021/05/02 09:26:06;;;;;;;18.27;15.63;;;;;;;9.78;53.84;95565.53;4992356;28;20202;-73
2021/05/02 09:28:45;;;;;;;18.53;16.53;;;;;;;9.41;52.42;95555.13;5010528;28;20731;-75
2021/05/02 09:31:12;;;;;;;19.63;15.90;;;;;;;9.64;51.49;95562.44;5010957;28;20179;-75
2021/05/02 09:33:38;;;;;;;20.67;18.50;;;;;;;9.62;52.31;95563.53;4992790;28;20241;-75
2021/05/02 09:36:07;;;;;;;19.73;17.70;;;;;;;10.11;52.97;95546.81;4992119;28;20227;-75
2021/05/02 09:38:32;;;;;;;21.90;19.00;;;;;;;10.14;52.47;95556.09;5010445;28;20346;-75
2021/05/02 09:41:00;;;;;;;20.60;18.47;;;;;;;10.69;50.07;95556.03;5010633;28;20274;-74
2021/05/02 09:43:33;;;;;;;21.73;19.30;;;;;;;10.30;50.13;95558.91;5010374;28;20187;-75
2021/05/02 09:48:58;;;;;;;19.37;17.37;;;;;;;10.55;50.61;95551.38;4997188;28;20639;-75
2021/05/02 09:51:25;;;;;;;21.73;18.33;;;;;;;10.59;50.76;95550.09;5014453;28;20205;-73
2021/05/02 09:54:10;;;;;;;20.07;17.50;;;;;;;10.45;51.11;95559.22;5013889;28;20666;-74
2021/05/02 09:56:39;;;;;;;19.13;17.13;;;;;;;9.85;52.38;95567.41;4995793;28;20203;-75
2021/05/02 09:59:07;;;;;;;20.43;18.33;;;;;;;9.48;52.40;95570.00;4996527;28;20183;-75
2021/05/02 10:01:32;;;;;;;20.30;18.20;;;;;;;9.29;52.24;95570.84;4996141;28;20187;-75
2021/05/02 10:04:00;;;;;;;19.57;17.47;;;;;;;9.68;53.32;95573.34;5014518;28;20665;-75
2021/05/02 10:06:34;;;;;;;20.00;18.00;;;;;;;9.98;52.58;95572.25;5013186;28;20690;-75
2021/05/02 10:09:01;;;;;;;20.30;18.20;;;;;;;9.96;51.11;95568.19;5013714;28;20178;-75
2021/05/02 10:11:26;;;;;;;21.00;17.93;;;;;;;10.45;49.17;95565.25;5013721;28;20187;-75
2021/05/02 10:13:53;;;;;;;18.90;16.80;;;;;;;10.95;48.48;95556.13;5013601;28;20238;-76
2021/05/02 10:16:18;;;;;;;18.70;16.90;;;;;;;11.17;48.82;95560.03;5012978;28;20203;-75
2021/05/02 10:18:44;;;;;;;17.27;15.47;;;;;;;10.47;46.65;95558.13;4995958;28;20209;-75
2021/05/02 10:21:10;;;;;;;19.40;17.43;;;;;;;10.13;49.03;95559.66;5013631;28;20183;-75
2021/05/02 10:23:38;;;;;;;19.37;17.03;;;;;;;9.86;49.79;95563.03;5013447;28;20176;-75
2021/05/02 10:26:05;;;;;;;17.90;16.10;;;;;;;9.51;50.63;95572.28;5012746;28;20461;-74
2021/05/02 10:28:33;;;;;;;20.03;17.60;;;;;;;9.39;53.43;95575.19;5013145;28;20218;-74
2021/05/02 10:31:00;;;;;;;20.40;18.23;;;;;;;9.24;55.44;95574.81;4995876;28;20182;-74
2021/05/02 10:33:31;;;;;;;19.70;17.70;;;;;;;9.29;57.58;95580.41;5012898;28;20587;-80
2021/05/02 10:36:04;;;;;;;22.57;20.10;;;;;;;9.37;58.12;95583.13;5013124;28;20202;-76
2021/05/02 10:39:00;;;;;;;18.77;16.73;;;;;;;9.45;53.40;95575.44;5014649;28;20175;-76
2021/05/02 10:41:45;;;;;;;20.47;17.33;;;;;;;9.70;54.92;95573.19;4934026;29;20385;-76
2021/05/02 10:44:13;;;;;;;18.37;15.87;;;;;;;9.82;52.80;95566.91;4918076;29;20206;-76
2021/05/02 10:46:44;;;;;;;18.70;16.67;;;;;;;9.79;52.99;95573.16;4932659;29;20210;-75
2021/05/02 10:49:18;;;;;;;24.73;21.47;;;;;;;10.14;50.50;95567.28;4933651;29;20320;-75
2021/05/02 10:51:51;;;;;;;40.50;28.77;;;;;;;10.37;51.43;95565.16;4933881;29;20193;-75
2021/05/02 10:54:18;;;;;;;26.73;21.60;;;;;;;10.60;49.04;95568.16;4933364;29;20221;-75
2021/05/02 10:56:48;;;;;;;18.50;16.50;;;;;;;10.95;48.52;95569.09;4933779;29;20202;-74
2021/05/02 10:59:14;;;;;;;19.57;17.70;;;;;;;10.63;46.68;95570.44;4932568;29;20220;-73
2021/05/02 11:01:39;;;;;;;18.37;16.57;;;;;;;10.58;48.73;95572.66;4917960;29;20186;-74
2021/05/02 11:04:05;;;;;;;18.07;15.87;;;;;;;10.03;49.97;95569.25;4933315;29;20540;-73
2021/05/02 11:06:40;;;;;;;16.43;14.73;;;;;;;9.05;52.28;95583.41;4932933;29;20237;-74
2021/05/02 11:09:13;;;;;;;17.50;15.60;;;;;;;9.54;51.78;95578.97;4934260;29;20221;-77
2021/05/02 11:11:47;;;;;;;16.93;15.07;;;;;;;9.77;49.58;95584.66;4917661;29;20289;-75
2021/05/02 11:14:14;;;;;;;16.10;14.60;;;;;;;9.68;51.23;95581.13;4931589;29;20217;-75
2021/05/02 11:17:10;;;;;;;15.27;13.77;;;;;;;9.69;50.17;95582.75;4935200;28;20313;-77
2021/05/02 11:19:35;;;;;;;18.57;15.53;;;;;;;9.17;50.58;95590.09;5013019;28;20245;-76
2021/05/02 11:22:10;;;;;;;17.73;15.30;;;;;;;9.08;50.72;95588.31;5012664;28;20586;-76
2021/05/02 11:24:38;;;;;;;16.70;15.00;;;;;;;8.64;52.50;95629.31;5011933;28;20626;-75
2021/05/02 11:32:32;;;;;;;17.60;14.07;;;;;;;6.94;62.37;95634.94;5012732;28;20669;-76